createdAt,value
2023-11-26T00:01:48.275Z,5.10
2023-11-26T00:04:50.167Z,4.88
2023-11-26T00:07:52.726Z,4.93
2023-11-26T00:10:55.880Z,4.95
2023-11-26T00:13:58.418Z,5.35
2023-11-26T00:17:00.734Z,5.03
2023-11-26T00:20:02.650Z,4.60
2023-11-26T00:23:04.621Z,5.35
2023-11-26T00:26:07.192Z,4.78
2023-11-26T00:29:09.105Z,5.75
2023-11-26T00:32:11.257Z,5.40
2023-11-26T00:35:13.752Z,5.72
2023-11-26T00:38:15.692Z,6.45
2023-11-26T00:41:17.658Z,6.30
2023-11-26T00:44:19.493Z,6.05
2023-11-26T00:47:22.088Z,6.68
2023-11-26T00:50:24.281Z,6.63
2023-11-26T00:53:26.209Z,6.68
2023-11-26T00:56:28.048Z,6.63
2023-11-26T00:59:29.852Z,6.90
2023-11-26T01:02:34.416Z,6.95
2023-11-26T01:05:36.477Z,6.40
2023-11-26T01:08:38.326Z,7.57
2023-11-26T01:11:40.134Z,6.95
2023-11-26T01:14:41.902Z,7.20
2023-11-26T01:17:44.105Z,6.80
2023-11-26T01:20:46.288Z,7.33
2023-11-26T01:23:48.524Z,6.55
2023-11-26T01:26:50.750Z,6.53
2023-11-26T01:29:52.521Z,7.30
2023-11-26T01:32:54.467Z,7.38
2023-11-26T01:35:56.355Z,6.90
2023-11-26T01:38:58.221Z,7.25
2023-11-26T01:42:00.240Z,7.22
2023-11-26T01:45:01.971Z,6.45
2023-11-26T01:48:04.591Z,6.88
2023-11-26T01:51:10.433Z,6.72
2023-11-26T01:54:12.343Z,6.07
2023-11-26T01:57:16.422Z,6.78
2023-11-26T02:00:21.068Z,6.93
2023-11-26T02:03:23.527Z,7.05
2023-11-26T02:06:26.194Z,6.60
2023-11-26T02:09:29.206Z,6.20
2023-11-26T02:12:30.980Z,6.07
2023-11-26T02:15:36.208Z,6.57
2023-11-26T02:18:38.109Z,5.78
2023-11-26T02:21:39.908Z,6.70
2023-11-26T02:24:45.094Z,6.57
2023-11-26T02:27:47.579Z,6.15
2023-11-26T02:30:49.646Z,6.00
2023-11-26T02:33:55.137Z,6.25
2023-11-26T02:36:58.002Z,6.40
2023-11-26T02:39:59.802Z,5.75
2023-11-26T02:43:02.362Z,6.15
2023-11-26T02:46:04.223Z,6.47
2023-11-26T02:49:06.088Z,6.70
2023-11-26T02:52:07.825Z,6.38
2023-11-26T02:55:09.999Z,6.28
2023-11-26T02:58:14.255Z,7.45
2023-11-26T03:01:29.547Z,6.85
2023-11-26T03:04:31.506Z,7.47
2023-11-26T03:07:35.714Z,8.20
2023-11-26T03:10:57.663Z,8.18
2023-11-26T03:13:59.727Z,8.10
2023-11-26T03:17:01.720Z,8.60
2023-11-26T03:20:04.240Z,8.85
2023-11-26T03:23:06.107Z,11.00
2023-11-26T03:26:08.223Z,11.60
2023-11-26T03:29:10.872Z,13.07
2023-11-26T03:32:12.958Z,12.13
2023-11-26T03:35:14.841Z,12.50
2023-11-26T03:38:17.558Z,13.85
2023-11-26T03:41:20.043Z,13.55
2023-11-26T03:44:21.993Z,13.40
2023-11-26T03:47:24.697Z,14.20
2023-11-26T03:50:27.344Z,13.63
2023-11-26T03:53:29.788Z,15.57
2023-11-26T03:56:31.674Z,15.53
2023-11-26T03:59:33.558Z,14.63
2023-11-26T04:02:36.583Z,14.88
2023-11-26T04:05:38.426Z,15.95
2023-11-26T04:08:40.290Z,15.52
2023-11-26T04:11:45.556Z,16.38
2023-11-26T04:14:58.096Z,15.32
2023-11-26T04:18:00.268Z,15.70
2023-11-26T04:21:02.676Z,16.50
2023-11-26T04:24:04.758Z,15.23
2023-11-26T04:27:06.762Z,15.02
2023-11-26T04:30:09.474Z,15.30
2023-11-26T04:33:11.660Z,16.13
2023-11-26T04:36:14.149Z,15.50
2023-11-26T04:39:15.928Z,14.43
2023-11-26T04:42:18.716Z,15.07
2023-11-26T04:45:20.886Z,15.70
2023-11-26T04:48:22.712Z,15.82
2023-11-26T04:51:24.663Z,14.10
2023-11-26T04:54:28.062Z,15.52
2023-11-26T04:57:31.244Z,16.42
2023-11-26T05:00:33.182Z,15.38
2023-11-26T05:03:35.096Z,15.90
2023-11-26T05:06:36.874Z,16.02
2023-11-26T05:09:38.696Z,15.20
2023-11-26T05:12:40.504Z,15.68
2023-11-26T05:15:42.460Z,15.30
2023-11-26T05:18:44.926Z,14.73
2023-11-26T05:21:47.940Z,15.17
2023-11-26T05:24:50.102Z,15.45
2023-11-26T05:27:52.220Z,14.35
2023-11-26T05:30:55.038Z,13.90
2023-11-26T05:33:57.692Z,14.85
2023-11-26T05:37:01.719Z,14.07
2023-11-26T05:40:03.663Z,14.27
2023-11-26T05:43:05.654Z,14.55
2023-11-26T05:46:08.393Z,13.95
2023-11-26T05:49:10.465Z,13.80
2023-11-26T05:52:12.461Z,13.65
2023-11-26T05:55:14.419Z,13.60
2023-11-26T05:58:16.167Z,14.60
2023-11-26T06:01:25.572Z,14.02
2023-11-26T06:04:27.514Z,13.82
2023-11-26T06:07:29.393Z,13.98
2023-11-26T06:10:34.683Z,12.55
2023-11-26T06:13:36.449Z,12.35
2023-11-26T06:16:38.406Z,13.45
2023-11-26T06:19:40.329Z,13.05
2023-11-26T06:22:43.319Z,13.23
2023-11-26T06:25:45.290Z,13.95
2023-11-26T06:28:47.097Z,13.25
2023-11-26T06:31:49.203Z,12.23
2023-11-26T06:34:51.032Z,13.02
2023-11-26T06:37:52.812Z,13.25
2023-11-26T06:40:54.603Z,12.77
2023-11-26T06:43:57.824Z,12.52
2023-11-26T06:50:01.834Z,12.50
2023-11-26T06:53:04.266Z,12.20
2023-11-26T06:56:07.646Z,12.30
2023-11-26T06:59:09.721Z,12.57
2023-11-26T07:02:11.950Z,12.38
2023-11-26T07:05:14.099Z,11.93
2023-11-26T07:08:15.961Z,12.35
2023-11-26T07:11:25.459Z,11.98
2023-11-26T07:14:27.923Z,11.75
2023-11-26T07:17:31.016Z,11.65
2023-11-26T07:20:35.029Z,12.20
2023-11-26T07:23:37.884Z,10.95
2023-11-26T07:26:40.186Z,11.00
2023-11-26T07:29:42.000Z,11.17
2023-11-26T07:32:44.788Z,11.23
2023-11-26T07:35:46.703Z,10.82
2023-11-26T07:38:48.471Z,10.55
2023-11-26T07:41:50.256Z,10.15
2023-11-26T07:44:52.099Z,10.07
2023-11-26T07:47:54.009Z,10.05
2023-11-26T07:50:56.593Z,9.88
2023-11-26T07:53:58.380Z,9.95
2023-11-26T07:57:00.103Z,10.00
2023-11-26T08:00:03.653Z,9.45
2023-11-26T08:03:06.173Z,10.27
2023-11-26T08:06:14.240Z,9.40
2023-11-26T08:09:17.118Z,9.50
2023-11-26T08:12:21.520Z,8.98
2023-11-26T08:15:25.367Z,9.38
2023-11-26T08:18:27.287Z,9.25
2023-11-26T08:21:32.618Z,9.85
2023-11-26T08:24:37.559Z,8.55
2023-11-26T08:27:46.300Z,8.43
2023-11-26T08:30:49.276Z,8.77
2023-11-26T08:33:51.900Z,8.93
2023-11-26T08:36:53.741Z,9.07
2023-11-26T08:39:55.637Z,8.80
2023-11-26T08:42:57.556Z,8.52
2023-11-26T08:46:04.161Z,8.55
2023-11-26T08:49:09.612Z,8.30
2023-11-26T08:52:11.782Z,7.85
2023-11-26T08:55:13.629Z,7.70
2023-11-26T08:58:15.529Z,7.78
2023-11-26T09:01:17.374Z,7.90
2023-11-26T09:04:19.196Z,8.32
2023-11-26T09:07:21.201Z,8.23
2023-11-26T09:10:23.122Z,7.47
2023-11-26T09:13:25.816Z,7.28
2023-11-26T09:16:30.985Z,7.55
2023-11-26T09:19:33.052Z,7.80
2023-11-26T09:22:34.783Z,7.95
2023-11-26T09:25:38.084Z,8.05
2023-11-26T09:31:45.720Z,8.30
2023-11-26T09:34:50.916Z,9.25
2023-11-26T09:37:55.032Z,8.43
2023-11-26T09:40:56.761Z,9.68
2023-11-26T09:46:57.732Z,11.00
2023-11-26T09:49:59.635Z,11.98
2023-11-26T09:53:02.805Z,11.43
2023-11-26T09:56:07.829Z,11.25
2023-11-26T09:59:25.216Z,11.15
2023-11-26T10:02:27.221Z,11.32
2023-11-26T10:05:29.688Z,11.38
2023-11-26T10:08:33.292Z,11.88
2023-11-26T10:11:35.286Z,10.88
2023-11-26T10:14:40.442Z,11.27
2023-11-26T10:17:42.380Z,12.13
2023-11-26T10:20:46.454Z,11.52
2023-11-26T10:23:48.703Z,11.70
2023-11-26T10:26:53.254Z,12.63
2023-11-26T10:29:55.153Z,13.20
2023-11-26T10:33:03.765Z,12.65
2023-11-26T10:36:06.258Z,13.07
2023-11-26T10:39:11.051Z,12.60
2023-11-26T10:42:13.551Z,12.73
2023-11-26T10:45:18.540Z,12.27
2023-11-26T10:48:23.953Z,12.00
2023-11-26T10:51:29.517Z,11.88
2023-11-26T10:54:38.787Z,11.52
2023-11-26T10:57:42.722Z,11.15
2023-11-26T11:00:49.989Z,11.07
2023-11-26T11:03:53.372Z,11.88
2023-11-26T11:10:03.766Z,10.55
2023-11-26T11:13:17.896Z,10.55
2023-11-26T11:16:19.883Z,9.60
2023-11-26T11:19:57.049Z,9.95
2023-11-26T11:23:00.698Z,10.30
2023-11-26T11:26:03.539Z,9.95
2023-11-26T11:29:05.530Z,11.75
2023-11-26T11:32:07.557Z,10.35
2023-11-26T11:35:37.601Z,10.70
2023-11-26T11:39:05.604Z,10.02
2023-11-26T11:42:08.852Z,10.38
2023-11-26T11:45:29.362Z,11.15
2023-11-26T11:48:43.741Z,10.55
2023-11-26T11:51:45.742Z,11.43
2023-11-26T11:54:59.425Z,11.50
2023-11-26T11:58:13.617Z,10.45
2023-11-26T12:01:18.734Z,11.63
2023-11-26T12:04:37.031Z,10.82
2023-11-26T12:07:39.160Z,11.07
2023-11-26T12:10:41.129Z,10.40
2023-11-26T12:13:45.884Z,10.30
2023-11-26T12:16:47.742Z,10.88
2023-11-26T12:19:56.259Z,10.38
2023-11-26T12:22:58.976Z,9.30
2023-11-26T12:26:01.938Z,10.07
2023-11-26T12:29:03.704Z,9.70
2023-11-26T12:32:09.708Z,9.18
2023-11-26T12:35:16.469Z,9.57
2023-11-26T12:38:25.454Z,9.68
2023-11-26T12:41:27.729Z,10.85
2023-11-26T12:44:31.798Z,10.55
2023-11-26T12:47:34.071Z,10.82
2023-11-26T12:50:45.761Z,11.27
2023-11-26T12:53:54.111Z,12.18
2023-11-26T12:56:59.246Z,12.40
2023-11-26T13:00:02.500Z,11.43
2023-11-26T13:06:10.782Z,11.75
2023-11-26T13:09:13.970Z,13.30
2023-11-26T13:12:16.341Z,13.63
2023-11-26T13:15:18.556Z,14.40
2023-11-26T13:18:20.697Z,15.82
2023-11-26T13:22:27.056Z,13.82
2023-11-26T13:25:30.730Z,13.88
2023-11-26T13:28:34.399Z,15.30
2023-11-26T13:31:36.506Z,15.00
2023-11-26T13:34:39.240Z,14.50
2023-11-26T13:37:41.437Z,10.23
2023-11-26T13:40:45.318Z,15.75
2023-11-26T13:43:47.524Z,15.25
2023-11-26T13:46:49.582Z,14.63
2023-11-26T13:49:51.321Z,13.60
2023-11-26T13:52:53.198Z,13.73
2023-11-26T13:55:55.378Z,13.07
2023-11-26T13:58:57.543Z,13.65
2023-11-26T14:01:59.627Z,14.68
2023-11-26T14:05:03.722Z,13.45
2023-11-26T14:08:08.697Z,13.35
2023-11-26T14:11:12.242Z,14.10
2023-11-26T14:14:14.980Z,14.57
2023-11-26T14:17:16.824Z,14.60
2023-11-26T14:20:21.077Z,14.25
2023-11-26T14:23:23.790Z,12.75
2023-11-26T14:26:26.610Z,13.02
2023-11-26T14:29:28.679Z,12.35
2023-11-26T14:32:30.929Z,11.85
2023-11-26T14:35:33.843Z,12.60
2023-11-26T14:38:35.749Z,11.40
2023-11-26T14:41:37.797Z,11.02
2023-11-26T14:44:39.922Z,10.43
2023-11-26T14:47:48.749Z,10.40
2023-11-26T14:50:50.708Z,10.93
2023-11-26T14:53:52.592Z,10.23
2023-11-26T14:56:54.379Z,10.65
2023-11-26T14:59:57.154Z,9.70
2023-11-26T15:02:59.189Z,11.00
2023-11-26T15:06:01.162Z,10.07
2023-11-26T15:09:05.278Z,9.45
2023-11-26T15:12:08.562Z,9.80
2023-11-26T15:15:12.427Z,10.15
2023-11-26T15:18:15.665Z,10.00
2023-11-26T15:21:18.784Z,10.60
2023-11-26T15:24:20.573Z,9.57
2023-11-26T15:27:22.576Z,9.60
2023-11-26T15:30:24.595Z,8.05
2023-11-26T15:33:26.765Z,8.05
2023-11-26T15:36:28.872Z,7.75
2023-11-26T15:39:30.868Z,8.00
2023-11-26T15:42:32.821Z,8.15
2023-11-26T15:45:34.659Z,8.50
2023-11-26T15:51:43.861Z,8.25
2023-11-26T15:54:45.892Z,8.27
2023-11-26T15:57:48.524Z,7.38
2023-11-26T16:00:50.497Z,7.10
2023-11-26T16:03:52.387Z,7.43
2023-11-26T16:06:54.247Z,6.55
2023-11-26T16:09:56.301Z,6.65
2023-11-26T16:12:58.130Z,6.72
2023-11-26T16:16:00.091Z,7.97
2023-11-26T16:19:02.045Z,8.27
2023-11-26T16:22:04.972Z,8.52
2023-11-26T16:25:10.369Z,8.32
2023-11-26T16:28:12.749Z,9.10
2023-11-26T16:31:15.726Z,8.68
2023-11-26T16:34:17.579Z,9.27
2023-11-26T16:37:19.456Z,9.77
2023-11-26T16:40:21.605Z,9.57
2023-11-26T16:43:23.479Z,9.05
2023-11-26T16:46:28.330Z,8.80
2023-11-26T16:49:31.925Z,8.68
2023-11-26T16:52:33.937Z,7.15
2023-11-26T16:55:35.968Z,8.50
2023-11-26T16:58:38.933Z,8.32
2023-11-26T17:01:41.027Z,7.82
2023-11-26T17:04:43.079Z,7.43
2023-11-26T17:07:45.050Z,7.80
2023-11-26T17:10:47.743Z,7.13
2023-11-26T17:13:49.621Z,6.68
2023-11-26T17:16:51.541Z,7.18
2023-11-26T17:19:53.531Z,7.57
2023-11-26T17:22:55.327Z,7.75
2023-11-26T17:25:57.935Z,7.47
2023-11-26T17:28:59.691Z,6.25
2023-11-26T17:32:01.715Z,5.95
2023-11-26T17:35:03.700Z,6.95
2023-11-26T17:38:05.481Z,6.80
2023-11-26T17:41:07.606Z,6.45
2023-11-26T17:44:09.417Z,6.70
2023-11-26T17:47:13.339Z,6.60
2023-11-26T17:50:15.094Z,6.45
2023-11-26T17:53:18.204Z,5.78
2023-11-26T17:56:20.406Z,6.32
2023-11-26T17:59:22.284Z,6.45
2023-11-26T18:02:24.186Z,5.30
2023-11-26T18:05:26.446Z,5.60
2023-11-26T18:08:28.364Z,5.43
2023-11-26T18:11:32.725Z,5.72
2023-11-26T18:14:34.675Z,5.28
2023-11-26T18:17:36.968Z,5.15
2023-11-26T18:20:38.709Z,5.47
2023-11-26T18:23:41.579Z,5.47
2023-11-26T18:26:46.888Z,5.68
2023-11-26T18:29:48.805Z,5.55
2023-11-26T18:32:50.627Z,5.20
2023-11-26T18:35:52.585Z,4.85
2023-11-26T18:38:55.031Z,5.53
2023-11-26T18:41:56.980Z,4.00
2023-11-26T18:44:58.882Z,5.38
2023-11-26T18:48:02.482Z,4.60
2023-11-26T18:51:06.061Z,5.25
2023-11-26T18:54:10.418Z,5.00
2023-11-26T18:57:12.508Z,5.53
2023-11-26T19:00:15.139Z,5.30
2023-11-26T19:03:17.065Z,4.68
2023-11-26T19:06:19.114Z,4.85
2023-11-26T19:09:21.169Z,4.80
2023-11-26T19:12:23.040Z,4.97
2023-11-26T19:15:24.858Z,5.00
2023-11-26T19:18:26.615Z,5.00
2023-11-26T19:21:28.570Z,5.20
2023-11-26T19:24:31.141Z,5.00
2023-11-26T19:27:35.271Z,5.43
2023-11-26T19:30:38.109Z,5.45
2023-11-26T19:33:39.955Z,5.38
2023-11-26T19:36:41.811Z,5.40
2023-11-26T19:39:44.665Z,5.20
2023-11-26T19:42:46.777Z,5.78
2023-11-26T19:45:48.669Z,5.65
2023-11-26T19:48:57.232Z,5.63
2023-11-26T19:51:59.391Z,5.30
2023-11-26T19:55:02.000Z,5.20
2023-11-26T19:58:04.270Z,6.50
2023-11-26T20:01:08.765Z,7.68
2023-11-26T20:04:10.728Z,5.82
2023-11-26T20:07:13.313Z,5.20
2023-11-26T20:10:21.488Z,5.00
2023-11-26T20:13:23.397Z,4.70
2023-11-26T20:16:25.998Z,5.13
2023-11-26T20:19:27.923Z,4.88
2023-11-26T20:22:30.882Z,4.55
2023-11-26T20:25:34.306Z,5.05
2023-11-26T20:28:36.534Z,4.88
2023-11-26T20:31:38.637Z,5.07
2023-11-26T20:34:41.617Z,4.88
2023-11-26T20:37:43.698Z,4.65
2023-11-26T20:40:45.760Z,5.13
2023-11-26T20:43:47.488Z,5.47
2023-11-26T20:46:49.449Z,4.95
2023-11-26T20:49:51.333Z,5.32
2023-11-26T20:52:53.256Z,5.03
2023-11-26T20:55:55.126Z,5.00
2023-11-26T20:58:59.257Z,4.63
2023-11-26T21:02:02.014Z,4.85
2023-11-26T21:05:04.980Z,5.25
2023-11-26T21:08:06.929Z,5.82
2023-11-26T21:11:10.961Z,5.40
2023-11-26T21:14:13.987Z,5.13
2023-11-26T21:17:16.066Z,5.30
2023-11-26T21:20:18.396Z,5.53
2023-11-26T21:23:20.604Z,5.67
2023-11-26T21:26:22.405Z,5.18
2023-11-26T21:29:24.380Z,5.45
2023-11-26T21:32:26.244Z,4.57
2023-11-26T21:35:29.116Z,4.70
2023-11-26T21:38:32.357Z,4.80
2023-11-26T21:41:34.299Z,5.03
2023-11-26T21:44:36.173Z,4.70
2023-11-26T21:47:38.451Z,5.22
2023-11-26T21:50:40.281Z,5.47
2023-11-26T21:53:42.729Z,5.65
2023-11-26T21:56:44.569Z,5.20
2023-11-26T21:59:46.290Z,5.32
2023-11-26T22:02:48.121Z,5.63
2023-11-26T22:05:50.673Z,4.95
2023-11-26T22:08:53.031Z,5.25
2023-11-26T22:11:54.775Z,5.18
2023-11-26T22:14:56.505Z,5.25
2023-11-26T22:17:58.305Z,5.82
2023-11-26T22:21:01.038Z,6.05
2023-11-26T22:24:05.878Z,5.13
2023-11-26T22:27:09.512Z,5.15
2023-11-26T22:30:12.920Z,5.57
2023-11-26T22:33:15.390Z,5.95
2023-11-26T22:36:22.066Z,5.55
2023-11-26T22:39:23.834Z,6.43
2023-11-26T22:42:25.904Z,6.38
2023-11-26T22:45:27.956Z,5.97
2023-11-26T22:48:29.926Z,6.15
2023-11-26T22:51:34.609Z,6.13
2023-11-26T22:54:36.453Z,5.75
2023-11-26T22:57:38.330Z,6.70
2023-11-26T23:00:41.963Z,7.07
2023-11-26T23:03:44.017Z,6.82
2023-11-26T23:06:45.881Z,7.18
2023-11-26T23:09:48.725Z,6.45
2023-11-26T23:12:50.806Z,6.80
2023-11-26T23:15:52.620Z,7.50
2023-11-26T23:18:54.464Z,7.50
2023-11-26T23:21:57.109Z,8.05
2023-11-26T23:25:00.490Z,7.43
2023-11-26T23:28:02.571Z,7.50
2023-11-26T23:31:04.601Z,7.25
2023-11-26T23:34:06.946Z,7.68
2023-11-26T23:37:08.883Z,7.27
2023-11-26T23:40:11.371Z,7.47
2023-11-26T23:43:16.525Z,8.10
2023-11-26T23:46:18.506Z,7.80
2023-11-26T23:49:20.462Z,8.25
2023-11-26T23:52:22.216Z,7.65
2023-11-26T23:55:24.357Z,7.20
2023-11-26T23:58:26.969Z,7.15
